createdAt,value
2023-04-24T00:00:27.145Z,12.55
2023-04-24T00:02:59.484Z,12.55
2023-04-24T00:05:31.818Z,12.53
2023-04-24T00:08:03.809Z,12.55
2023-04-24T00:10:35.936Z,12.54
2023-04-24T00:13:08.626Z,12.50
2023-04-24T00:15:40.832Z,12.48
2023-04-24T00:18:12.882Z,12.49
2023-04-24T00:20:45.376Z,12.49
2023-04-24T00:23:17.640Z,12.45
2023-04-24T00:25:49.736Z,12.51
2023-04-24T00:28:22.080Z,12.45
2023-04-24T00:30:54.147Z,12.56
2023-04-24T00:33:26.419Z,12.65
2023-04-24T00:35:58.860Z,12.68
2023-04-24T00:38:31.220Z,12.69
2023-04-24T00:41:03.376Z,12.76
2023-04-24T00:43:38.305Z,12.83
2023-04-24T00:46:10.699Z,12.84
2023-04-24T00:48:43.157Z,12.89
2023-04-24T00:51:15.935Z,12.95
2023-04-24T00:53:48.493Z,12.96
2023-04-24T00:56:21.708Z,13.04
2023-04-24T00:58:54.149Z,13.04
2023-04-24T01:01:27.421Z,13.01
2023-04-24T01:04:01.197Z,12.93
2023-04-24T01:06:34.087Z,12.88
2023-04-24T01:09:06.844Z,12.88
2023-04-24T01:11:39.724Z,12.88
2023-04-24T01:14:12.439Z,12.86
2023-04-24T01:16:44.796Z,12.83
2023-04-24T01:19:19.519Z,12.90
2023-04-24T01:21:53.898Z,12.96
2023-04-24T01:24:26.399Z,13.05
2023-04-24T01:26:58.454Z,13.08
2023-04-24T01:29:30.699Z,13.04
2023-04-24T01:32:02.864Z,12.97
2023-04-24T01:34:35.707Z,12.90
2023-04-24T01:37:08.079Z,12.88
2023-04-24T01:39:40.574Z,12.82
2023-04-24T01:42:14.122Z,12.80
2023-04-24T01:44:46.656Z,12.80
2023-04-24T01:47:18.914Z,12.74
2023-04-24T01:49:51.987Z,12.71
2023-04-24T01:52:24.131Z,12.68
2023-04-24T01:54:57.002Z,12.66
2023-04-24T01:57:29.408Z,12.62
2023-04-24T02:00:01.852Z,12.57
2023-04-24T02:02:36.108Z,12.58
2023-04-24T02:05:12.172Z,12.62
2023-04-24T02:07:44.270Z,12.58
2023-04-24T02:10:16.847Z,12.55
2023-04-24T02:12:50.011Z,12.48
2023-04-24T02:15:22.469Z,12.46
2023-04-24T02:17:55.307Z,12.42
2023-04-24T02:20:27.598Z,12.36
2023-04-24T02:22:59.744Z,12.37
2023-04-24T02:25:31.980Z,12.34
2023-04-24T02:28:04.190Z,12.34
2023-04-24T02:30:38.270Z,12.38
2023-04-24T02:33:10.563Z,12.40
2023-04-24T02:35:42.610Z,12.38
2023-04-24T02:38:14.917Z,12.42
2023-04-24T02:40:48.419Z,12.42
2023-04-24T02:43:21.349Z,12.48
2023-04-24T02:45:53.568Z,12.53
2023-04-24T02:48:26.421Z,12.59
2023-04-24T02:50:58.795Z,12.68
2023-04-24T02:53:32.096Z,12.76
2023-04-24T02:56:04.346Z,12.85
2023-04-24T02:58:36.694Z,12.96
2023-04-24T03:01:10.960Z,13.07
2023-04-24T03:03:43.363Z,13.15
2023-04-24T03:06:15.711Z,13.24
2023-04-24T03:08:47.911Z,13.27
2023-04-24T03:11:20.595Z,13.31
2023-04-24T03:13:52.775Z,13.39
2023-04-24T03:16:25.184Z,13.47
2023-04-24T03:18:58.431Z,13.59
2023-04-24T03:21:32.393Z,13.66
2023-04-24T03:24:06.243Z,13.72
2023-04-24T03:26:38.329Z,13.80
2023-04-24T03:29:12.079Z,13.89
2023-04-24T03:31:45.077Z,13.98
2023-04-24T03:34:17.254Z,14.08
2023-04-24T03:36:49.803Z,14.18
2023-04-24T03:39:22.136Z,14.26
2023-04-24T03:41:56.469Z,14.36
2023-04-24T03:44:29.924Z,14.45
2023-04-24T03:47:01.637Z,14.64
2023-04-24T03:49:34.546Z,14.62
2023-04-24T03:52:07.064Z,14.69
2023-04-24T03:54:39.512Z,14.79
2023-04-24T03:57:11.989Z,14.88
2023-04-24T03:59:45.931Z,14.96
2023-04-24T04:02:20.080Z,15.07
2023-04-24T04:04:53.090Z,15.14
2023-04-24T04:07:25.629Z,15.22
2023-04-24T04:09:58.080Z,15.31
2023-04-24T04:12:31.547Z,15.40
2023-04-24T04:15:05.396Z,15.51
2023-04-24T04:17:39.411Z,15.59
2023-04-24T04:20:13.211Z,15.67
2023-04-24T04:22:46.572Z,15.75
2023-04-24T04:25:21.635Z,15.84
2023-04-24T04:27:55.020Z,15.90
2023-04-24T04:30:27.888Z,15.98
2023-04-24T04:33:03.904Z,16.07
2023-04-24T04:35:37.693Z,16.16
2023-04-24T04:38:12.158Z,16.24
2023-04-24T04:40:49.377Z,16.36
2023-04-24T04:43:22.762Z,16.44
2023-04-24T04:45:57.212Z,16.56
2023-04-24T04:48:46.943Z,16.80
2023-04-24T04:51:19.719Z,16.93
2023-04-24T04:53:53.129Z,16.93
2023-04-24T04:56:25.854Z,17.03
2023-04-24T04:58:58.178Z,17.19
2023-04-24T05:01:32.123Z,17.19
2023-04-24T05:04:04.295Z,17.40
2023-04-24T05:06:37.018Z,17.27
2023-04-24T05:09:10.895Z,17.40
2023-04-24T05:11:47.722Z,17.46
2023-04-24T05:14:20.628Z,17.46
2023-04-24T05:16:54.470Z,17.59
2023-04-24T05:19:27.095Z,17.77
2023-04-24T05:21:59.749Z,17.85
2023-04-24T05:24:32.136Z,17.96
2023-04-24T05:27:06.409Z,18.04
2023-04-24T05:29:40.196Z,18.11
2023-04-24T05:32:13.343Z,18.21
2023-04-24T05:34:45.592Z,18.26
2023-04-24T05:37:19.007Z,18.34
2023-04-24T05:39:51.941Z,18.38
2023-04-24T05:42:24.671Z,18.44
2023-04-24T05:44:57.991Z,18.52
2023-04-24T05:47:33.296Z,18.59
2023-04-24T05:50:05.940Z,18.70
2023-04-24T05:52:38.385Z,18.80
2023-04-24T05:55:12.222Z,18.92
2023-04-24T05:57:44.777Z,19.02
2023-04-24T06:00:19.256Z,19.10
2023-04-24T06:02:54.458Z,19.25
2023-04-24T06:05:27.809Z,19.65
2023-04-24T06:08:00.594Z,20.03
2023-04-24T06:10:34.317Z,20.47
2023-04-24T06:13:07.955Z,21.13
2023-04-24T06:15:42.112Z,21.87
2023-04-24T06:18:19.281Z,22.50
2023-04-24T06:20:53.395Z,22.98
2023-04-24T06:23:26.301Z,23.50
2023-04-24T06:25:58.932Z,24.09
2023-04-24T06:28:31.180Z,24.34
2023-04-24T06:31:03.680Z,24.53
2023-04-24T06:33:36.215Z,24.82
2023-04-24T06:36:08.677Z,25.23
2023-04-24T06:38:41.217Z,25.65
2023-04-24T06:41:14.288Z,26.03
2023-04-24T06:43:46.619Z,26.45
2023-04-24T06:46:19.009Z,26.55
2023-04-24T06:48:51.900Z,26.46
2023-04-24T06:51:28.986Z,26.42
2023-04-24T06:54:02.540Z,26.43
2023-04-24T06:56:35.560Z,26.45
2023-04-24T06:59:07.858Z,26.52
2023-04-24T07:01:40.291Z,26.30
2023-04-24T07:04:13.632Z,25.98
2023-04-24T07:06:50.360Z,25.42
2023-04-24T07:09:23.085Z,24.77
2023-04-24T07:11:55.693Z,24.31
2023-04-24T07:14:28.053Z,23.81
2023-04-24T07:17:00.512Z,23.46
2023-04-24T07:19:33.666Z,23.14
2023-04-24T07:22:06.480Z,22.81
2023-04-24T07:24:39.291Z,22.54
2023-04-24T07:27:11.555Z,22.26
2023-04-24T07:29:44.879Z,22.12
2023-04-24T07:32:17.616Z,22.02
2023-04-24T07:34:50.004Z,22.08
2023-04-24T07:37:23.062Z,22.12
2023-04-24T07:39:55.532Z,22.14
2023-04-24T07:42:27.879Z,22.16
2023-04-24T07:45:00.881Z,22.15
2023-04-24T07:47:35.503Z,22.12
2023-04-24T07:50:08.776Z,22.13
2023-04-24T07:52:41.084Z,22.26
2023-04-24T07:55:13.507Z,22.41
2023-04-24T07:57:46.235Z,22.52
2023-04-24T08:00:18.630Z,22.75
2023-04-24T08:02:51.378Z,22.90
2023-04-24T08:05:26.052Z,22.91
2023-04-24T08:07:58.749Z,22.96
2023-04-24T08:10:31.414Z,23.06
2023-04-24T08:13:04.088Z,23.18
2023-04-24T08:15:36.612Z,23.26
2023-04-24T08:18:09.114Z,23.40
2023-04-24T08:20:41.651Z,23.49
2023-04-24T08:23:13.950Z,23.46
2023-04-24T08:25:46.614Z,23.26
2023-04-24T08:28:20.871Z,23.17
2023-04-24T08:30:54.640Z,23.13
2023-04-24T08:33:26.996Z,23.23
2023-04-24T08:35:59.222Z,23.32
2023-04-24T08:38:31.808Z,23.46
2023-04-24T08:41:06.267Z,23.61
2023-04-24T08:43:39.064Z,23.68
2023-04-24T08:46:12.263Z,23.61
2023-04-24T08:48:45.403Z,23.53
2023-04-24T08:51:19.084Z,23.41
2023-04-24T08:53:51.625Z,23.34
2023-04-24T08:56:25.558Z,23.33
2023-04-24T08:58:58.673Z,23.38
2023-04-24T09:01:31.369Z,23.48
2023-04-24T09:04:05.797Z,23.60
2023-04-24T09:06:38.261Z,23.79
2023-04-24T09:09:13.029Z,24.03
2023-04-24T09:11:45.609Z,24.10
2023-04-24T09:14:19.654Z,24.29
2023-04-24T09:16:53.370Z,24.50
2023-04-24T09:19:25.910Z,24.58
2023-04-24T09:21:58.701Z,24.69
2023-04-24T09:24:31.127Z,24.72
2023-04-24T09:27:05.038Z,24.56
2023-04-24T09:29:37.585Z,24.53
2023-04-24T09:32:23.803Z,24.58
2023-04-24T09:35:15.753Z,24.55
2023-04-24T09:37:50.366Z,24.36
2023-04-24T09:40:24.572Z,23.92
2023-04-24T09:43:01.464Z,23.54
2023-04-24T09:45:41.969Z,23.26
2023-04-24T09:48:14.627Z,23.22
2023-04-24T09:50:48.793Z,23.14
2023-04-24T09:53:24.126Z,23.10
2023-04-24T09:55:56.927Z,23.10
2023-04-24T09:58:29.259Z,23.17
2023-04-24T10:01:02.236Z,23.30
2023-04-24T10:03:36.141Z,23.45
2023-04-24T10:06:10.449Z,23.56
2023-04-24T10:08:43.632Z,23.72
2023-04-24T10:11:16.733Z,23.73
2023-04-24T10:13:49.682Z,23.66
2023-04-24T10:16:23.578Z,23.53
2023-04-24T10:18:56.358Z,23.34
2023-04-24T10:21:29.664Z,23.11
2023-04-24T10:24:04.201Z,22.96
2023-04-24T10:26:38.388Z,22.83
2023-04-24T10:29:13.631Z,22.72
2023-04-24T10:31:49.274Z,22.72
2023-04-24T10:34:25.444Z,22.80
2023-04-24T10:36:59.392Z,22.93
2023-04-24T10:39:33.846Z,22.96
2023-04-24T10:42:17.062Z,23.02
2023-04-24T10:44:52.464Z,23.03
2023-04-24T10:47:25.181Z,23.01
2023-04-24T10:50:00.398Z,22.97
2023-04-24T10:52:51.384Z,22.91
2023-04-24T10:55:43.502Z,22.82
2023-04-24T10:58:17.792Z,22.85
2023-04-24T11:00:58.397Z,22.88
2023-04-24T11:03:32.482Z,23.03
2023-04-24T11:06:10.376Z,23.11
2023-04-24T11:08:48.897Z,23.17
2023-04-24T11:11:22.829Z,23.20
2023-04-24T11:14:03.541Z,23.30
2023-04-24T11:16:46.673Z,23.55
2023-04-24T11:19:23.564Z,23.75
2023-04-24T11:22:06.827Z,23.78
2023-04-24T11:24:41.763Z,23.80
2023-04-24T11:27:25.466Z,24.02
2023-04-24T11:30:04.425Z,24.23
2023-04-24T11:32:40.980Z,24.62
2023-04-24T11:35:18.550Z,25.21
2023-04-24T11:38:12.496Z,25.48
2023-04-24T11:40:30.277Z,25.32
2023-04-24T11:43:02.972Z,25.16
2023-04-24T11:45:35.781Z,24.94
2023-04-24T11:48:08.050Z,24.78
2023-04-24T11:50:40.433Z,24.72
2023-04-24T11:53:14.496Z,24.63
2023-04-24T11:55:46.918Z,24.62
2023-04-24T11:58:22.353Z,24.68
2023-04-24T12:01:00.579Z,24.71
2023-04-24T12:03:34.052Z,24.87
2023-04-24T12:06:10.093Z,25.60
2023-04-24T12:08:42.328Z,26.45
2023-04-24T12:11:17.489Z,28.22
2023-04-24T12:13:50.145Z,30.02
2023-04-24T12:16:22.728Z,32.01
2023-04-24T12:18:54.940Z,33.85
2023-04-24T12:21:29.003Z,35.38
2023-04-24T12:24:01.351Z,36.56
2023-04-24T12:26:33.856Z,38.00
2023-04-24T12:29:06.092Z,39.19
2023-04-24T12:31:38.321Z,40.68
2023-04-24T12:34:22.117Z,41.98
2023-04-24T12:37:13.637Z,42.82
2023-04-24T12:40:02.372Z,43.60
2023-04-24T12:42:35.026Z,43.61
2023-04-24T12:45:09.111Z,41.77
2023-04-24T12:47:42.344Z,39.18
2023-04-24T12:50:16.837Z,36.47
2023-04-24T12:52:48.661Z,34.36
2023-04-24T12:55:21.650Z,33.97
2023-04-24T12:57:55.835Z,32.38
2023-04-24T13:00:27.963Z,32.37
2023-04-24T13:03:00.627Z,34.43
2023-04-24T13:05:33.583Z,36.59
2023-04-24T13:08:05.822Z,38.89
2023-04-24T13:10:38.473Z,38.98
2023-04-24T13:13:12.317Z,38.58
2023-04-24T13:15:44.506Z,39.63
2023-04-24T13:18:17.320Z,40.56
2023-04-24T13:20:49.393Z,41.57
2023-04-24T13:23:22.065Z,42.42
2023-04-24T13:25:56.512Z,43.15
2023-04-24T13:28:28.993Z,43.71
2023-04-24T13:31:01.502Z,44.15
2023-04-24T13:33:34.480Z,44.33
2023-04-24T13:36:06.929Z,44.71
2023-04-24T13:38:39.326Z,44.45
2023-04-24T13:41:11.937Z,44.08
2023-04-24T13:43:44.764Z,44.10
2023-04-24T13:46:17.314Z,44.33
2023-04-24T13:48:50.690Z,44.40
2023-04-24T13:51:23.189Z,44.24
2023-04-24T13:53:58.313Z,44.42
2023-04-24T13:56:30.785Z,44.44
2023-04-24T13:59:03.333Z,42.94
2023-04-24T14:01:35.435Z,42.45
2023-04-24T14:04:08.526Z,42.46
2023-04-24T14:06:41.212Z,42.61
2023-04-24T14:09:14.171Z,42.23
2023-04-24T14:11:46.616Z,42.10
2023-04-24T14:14:19.079Z,42.38
2023-04-24T14:16:52.137Z,42.73
2023-04-24T14:19:24.954Z,43.28
2023-04-24T14:21:57.829Z,43.75
2023-04-24T14:24:30.203Z,44.05
2023-04-24T14:27:02.820Z,44.36
2023-04-24T14:29:35.457Z,44.78
2023-04-24T14:32:08.134Z,44.35
2023-04-24T14:34:40.600Z,43.80
2023-04-24T14:37:13.475Z,43.40
2023-04-24T14:39:49.980Z,43.22
2023-04-24T14:42:19.253Z,43.16
2023-04-24T14:44:51.332Z,44.70
2023-04-24T14:47:23.798Z,42.86
2023-04-24T14:49:56.707Z,42.08
2023-04-24T14:52:29.291Z,41.51
2023-04-24T14:55:01.846Z,40.83
2023-04-24T14:57:34.557Z,39.08
2023-04-24T15:00:10.853Z,36.72
2023-04-24T15:02:44.627Z,34.48
2023-04-24T15:05:17.531Z,32.52
2023-04-24T15:07:49.977Z,30.91
2023-04-24T15:10:24.064Z,29.55
2023-04-24T15:12:56.332Z,28.44
2023-04-24T15:15:28.597Z,27.60
2023-04-24T15:18:01.212Z,26.80
2023-04-24T15:20:36.124Z,26.19
2023-04-24T15:23:10.633Z,25.74
2023-04-24T15:25:42.970Z,25.40
2023-04-24T15:28:16.485Z,25.06
2023-04-24T15:30:49.096Z,24.79
2023-04-24T15:33:21.959Z,24.62
2023-04-24T15:35:54.407Z,24.45
2023-04-24T15:38:27.959Z,24.31
2023-04-24T15:41:02.645Z,24.15
2023-04-24T15:43:35.733Z,24.04
2023-04-24T15:46:08.209Z,23.93
2023-04-24T15:48:42.490Z,23.75
2023-04-24T15:51:15.366Z,23.61
2023-04-24T15:53:48.432Z,23.47
2023-04-24T15:56:21.590Z,23.36
2023-04-24T15:58:53.880Z,23.21
2023-04-24T16:01:26.715Z,23.07
2023-04-24T16:03:59.502Z,22.93
2023-04-24T16:06:33.990Z,22.83
2023-04-24T16:09:06.290Z,22.71
2023-04-24T16:11:39.753Z,22.62
2023-04-24T16:14:12.479Z,22.51
2023-04-24T16:16:45.342Z,22.43
2023-04-24T16:19:18.196Z,22.32
2023-04-24T16:21:52.139Z,22.22
2023-04-24T16:24:27.869Z,22.14
2023-04-24T16:27:00.198Z,22.05
2023-04-24T16:29:32.872Z,21.93
2023-04-24T16:32:05.270Z,21.83
2023-04-24T16:34:38.235Z,21.73
2023-04-24T16:37:12.724Z,21.62
2023-04-24T16:39:45.627Z,21.51
2023-04-24T16:42:18.252Z,21.36
2023-04-24T16:44:50.474Z,21.25
2023-04-24T16:47:22.792Z,21.05
2023-04-24T16:49:55.324Z,20.89
2023-04-24T16:52:27.473Z,20.72
2023-04-24T16:55:00.615Z,20.61
2023-04-24T16:57:33.466Z,20.45
2023-04-24T17:00:06.425Z,20.57
2023-04-24T17:02:37.871Z,20.23
2023-04-24T17:05:11.209Z,20.05
2023-04-24T17:07:44.013Z,19.91
2023-04-24T17:10:17.360Z,19.80
2023-04-24T17:12:49.427Z,19.63
2023-04-24T17:15:21.723Z,19.52
2023-04-24T17:17:54.009Z,19.50
2023-04-24T17:20:29.720Z,19.49
2023-04-24T17:22:59.989Z,19.38
2023-04-24T17:25:31.882Z,19.54
2023-04-24T17:28:05.313Z,19.35
2023-04-24T17:30:37.532Z,19.23
2023-04-24T17:33:09.846Z,19.12
2023-04-24T17:35:42.307Z,19.06
2023-04-24T17:38:14.411Z,18.96
2023-04-24T17:40:47.516Z,18.88
2023-04-24T17:43:22.988Z,18.80
2023-04-24T17:45:56.923Z,18.74
2023-04-24T17:48:32.260Z,18.64
2023-04-24T17:51:05.638Z,18.66
2023-04-24T17:53:38.545Z,18.55
2023-04-24T17:56:10.704Z,18.48
2023-04-24T17:58:43.092Z,18.42
2023-04-24T18:01:15.253Z,18.37
2023-04-24T18:03:47.634Z,18.37
2023-04-24T18:06:19.824Z,18.33
2023-04-24T18:08:51.802Z,18.32
2023-04-24T18:11:24.135Z,18.24
2023-04-24T18:13:56.438Z,18.15
2023-04-24T18:16:28.592Z,18.17
2023-04-24T18:19:00.758Z,18.17
2023-04-24T18:21:32.928Z,18.11
2023-04-24T18:24:05.228Z,18.08
2023-04-24T18:26:37.442Z,18.11
2023-04-24T18:29:10.074Z,18.22
2023-04-24T18:31:42.385Z,18.28
2023-04-24T18:34:16.182Z,18.34
2023-04-24T18:36:48.640Z,18.41
2023-04-24T18:39:23.083Z,18.48
2023-04-24T18:41:55.952Z,18.51
2023-04-24T18:44:28.255Z,18.53
2023-04-24T18:47:00.698Z,18.53
2023-04-24T18:49:33.257Z,18.55
2023-04-24T18:52:05.197Z,18.51
2023-04-24T18:54:38.116Z,18.46
2023-04-24T18:57:10.162Z,18.44
2023-04-24T18:59:42.618Z,18.42
2023-04-24T19:02:15.913Z,18.42
2023-04-24T19:04:48.367Z,18.44
2023-04-24T19:07:20.840Z,18.44
2023-04-24T19:09:52.866Z,18.49
2023-04-24T19:12:25.274Z,18.54
2023-04-24T19:14:58.089Z,18.53
2023-04-24T19:17:39.680Z,18.55
2023-04-24T19:20:12.412Z,18.59
2023-04-24T19:22:44.732Z,18.58
2023-04-24T19:25:17.159Z,18.57
2023-04-24T19:27:50.133Z,18.55
2023-04-24T19:30:22.541Z,18.58
2023-04-24T19:32:54.992Z,18.62
2023-04-24T19:35:27.201Z,18.64
2023-04-24T19:37:59.418Z,18.62
2023-04-24T19:40:31.812Z,18.60
2023-04-24T19:43:04.127Z,18.51
2023-04-24T19:45:36.176Z,18.44
2023-04-24T19:48:08.633Z,18.37
2023-04-24T19:50:42.776Z,18.27
2023-04-24T19:53:15.096Z,18.22
2023-04-24T19:55:47.181Z,18.18
2023-04-24T19:58:19.399Z,18.15
2023-04-24T20:00:51.999Z,18.13
2023-04-24T20:03:32.809Z,18.18
2023-04-24T20:05:57.811Z,18.19
2023-04-24T20:08:30.053Z,18.19
2023-04-24T20:11:02.137Z,18.22
2023-04-24T20:13:34.293Z,18.20
2023-04-24T20:16:10.965Z,18.18
2023-04-24T20:18:41.912Z,18.21
2023-04-24T20:21:14.401Z,18.17
2023-04-24T20:23:46.469Z,18.12
2023-04-24T20:26:18.800Z,18.07
2023-04-24T20:28:51.154Z,18.00
2023-04-24T20:31:23.548Z,17.96
2023-04-24T20:33:55.691Z,17.90
2023-04-24T20:36:28.697Z,17.79
2023-04-24T20:39:01.566Z,17.78
2023-04-24T20:41:35.829Z,17.70
2023-04-24T20:44:08.430Z,17.67
2023-04-24T20:46:41.212Z,17.67
2023-04-24T20:49:13.278Z,17.66
2023-04-24T20:51:45.273Z,17.59
2023-04-24T20:54:17.367Z,17.54
2023-04-24T20:56:49.770Z,17.50
2023-04-24T20:59:21.960Z,17.45
2023-04-24T21:01:54.093Z,17.39
2023-04-24T21:04:26.397Z,17.32
2023-04-24T21:06:58.498Z,17.27
2023-04-24T21:09:30.956Z,17.21
2023-04-24T21:12:03.517Z,17.17
2023-04-24T21:14:35.901Z,17.12
2023-04-24T21:17:08.201Z,17.04
2023-04-24T21:19:40.681Z,17.00
2023-04-24T21:22:12.731Z,16.94
2023-04-24T21:24:44.605Z,16.90
2023-04-24T21:27:16.704Z,16.89
2023-04-24T21:29:49.423Z,16.81
2023-04-24T21:32:22.160Z,16.73
2023-04-24T21:34:54.504Z,16.62
2023-04-24T21:37:27.289Z,16.46
2023-04-24T21:39:59.619Z,16.33
2023-04-24T21:42:33.017Z,16.17
2023-04-24T21:45:06.302Z,16.07
2023-04-24T21:47:38.659Z,15.89
2023-04-24T21:50:11.658Z,15.86
2023-04-24T21:52:43.871Z,15.79
2023-04-24T21:55:15.865Z,15.71
2023-04-24T21:57:48.039Z,15.67
2023-04-24T22:00:20.303Z,15.61
2023-04-24T22:02:52.750Z,15.61
2023-04-24T22:05:25.037Z,15.66
2023-04-24T22:07:59.372Z,15.58
2023-04-24T22:10:31.558Z,15.57
2023-04-24T22:13:03.984Z,15.52
2023-04-24T22:15:36.128Z,15.50
2023-04-24T22:18:08.470Z,15.47
2023-04-24T22:20:40.695Z,15.41
2023-04-24T22:23:13.108Z,15.41
2023-04-24T22:25:45.419Z,15.32
2023-04-24T22:28:17.578Z,15.27
2023-04-24T22:30:50.230Z,15.25
2023-04-24T22:33:22.382Z,15.26
2023-04-24T22:35:54.774Z,15.21
2023-04-24T22:38:27.121Z,15.15
2023-04-24T22:40:59.681Z,15.15
2023-04-24T22:43:32.824Z,15.30
2023-04-24T22:46:05.845Z,15.32
2023-04-24T22:48:38.138Z,15.31
2023-04-24T22:51:10.803Z,15.33
2023-04-24T22:53:43.115Z,15.33
2023-04-24T22:56:15.784Z,15.24
2023-04-24T22:58:48.374Z,15.24
2023-04-24T23:01:20.781Z,15.34
2023-04-24T23:03:53.550Z,15.21
2023-04-24T23:06:27.012Z,15.21
2023-04-24T23:08:59.225Z,15.10
2023-04-24T23:11:31.565Z,15.01
2023-04-24T23:14:03.941Z,14.90
2023-04-24T23:16:40.884Z,14.80
2023-04-24T23:19:12.957Z,14.68
2023-04-24T23:21:45.433Z,14.68
2023-04-24T23:24:17.750Z,14.64
2023-04-24T23:26:49.868Z,14.63
2023-04-24T23:29:23.332Z,14.58
2023-04-24T23:31:55.842Z,14.58
2023-04-24T23:34:27.970Z,14.58
2023-04-24T23:37:00.626Z,14.52
2023-04-24T23:39:33.337Z,14.45
2023-04-24T23:42:05.513Z,14.42
2023-04-24T23:44:37.809Z,14.45
2023-04-24T23:47:09.866Z,14.45
2023-04-24T23:49:41.898Z,14.46
2023-04-24T23:52:14.028Z,14.43
2023-04-24T23:54:46.440Z,14.45
2023-04-24T23:57:19.265Z,14.43
2023-04-24T23:59:51.396Z,14.43
